createdAt,value
2023-02-08T00:01:25.380Z,64.10
2023-02-08T00:03:54.173Z,64.50
2023-02-08T00:06:22.418Z,64.40
2023-02-08T00:08:50.432Z,64.30
2023-02-08T00:11:20.530Z,64.30
2023-02-08T00:13:48.696Z,64.10
2023-02-08T00:16:18.854Z,64.20
2023-02-08T00:18:47.280Z,64.30
2023-02-08T00:21:18.008Z,64.50
2023-02-08T00:23:46.788Z,64.50
2023-02-08T00:26:16.273Z,64.50
2023-02-08T00:28:45.807Z,64.50
2023-02-08T00:31:14.457Z,64.50
2023-02-08T00:33:42.596Z,64.50
2023-02-08T00:36:12.881Z,64.50
2023-02-08T00:38:41.464Z,64.60
2023-02-08T00:41:10.299Z,64.40
2023-02-08T00:43:38.328Z,64.40
2023-02-08T00:46:10.075Z,64.30
2023-02-08T00:48:38.202Z,64.50
2023-02-08T00:51:08.012Z,64.50
2023-02-08T00:53:38.262Z,64.70
2023-02-08T00:56:07.310Z,64.80
2023-02-08T00:58:36.088Z,64.70
2023-02-08T01:01:05.540Z,64.70
2023-02-08T01:03:36.733Z,64.70
2023-02-08T01:06:06.939Z,64.20
2023-02-08T01:08:35.066Z,64.70
2023-02-08T01:11:08.624Z,64.80
2023-02-08T01:13:37.958Z,65.00
2023-02-08T01:16:11.688Z,64.90
2023-02-08T01:18:41.963Z,65.10
2023-02-08T01:21:13.919Z,65.20
2023-02-08T01:23:42.967Z,66.00
2023-02-08T01:26:11.739Z,65.20
2023-02-08T01:28:41.277Z,65.20
2023-02-08T01:31:11.543Z,65.20
2023-02-08T01:33:41.630Z,65.20
2023-02-08T01:36:10.917Z,65.10
2023-02-08T01:38:40.736Z,65.10
2023-02-08T01:41:12.720Z,64.90
2023-02-08T01:44:01.015Z,65.00
2023-02-08T01:46:29.262Z,65.20
2023-02-08T01:49:01.684Z,65.00
2023-02-08T01:51:33.203Z,65.00
2023-02-08T01:54:04.617Z,65.00
2023-02-08T01:56:35.915Z,64.80
2023-02-08T01:59:07.717Z,64.90
2023-02-08T02:01:36.946Z,64.90
2023-02-08T02:04:08.583Z,64.80
2023-02-08T02:06:40.993Z,64.90
2023-02-08T02:09:18.826Z,65.00
2023-02-08T02:11:47.547Z,65.00
2023-02-08T02:14:17.376Z,64.70
2023-02-08T02:16:45.529Z,64.80
2023-02-08T02:19:22.588Z,64.80
2023-02-08T02:22:03.180Z,65.10
2023-02-08T02:25:19.734Z,64.80
2023-02-08T02:28:27.100Z,64.60
2023-02-08T02:31:33.016Z,64.60
2023-02-08T02:34:06.366Z,64.80
2023-02-08T02:36:48.197Z,64.80
2023-02-08T02:39:22.648Z,64.80
2023-02-08T02:42:15.163Z,64.80
2023-02-08T02:44:53.533Z,64.70
2023-02-08T02:47:31.905Z,64.70
2023-02-08T02:50:06.725Z,64.80
2023-02-08T02:52:42.763Z,64.90
2023-02-08T02:55:16.351Z,65.10
2023-02-08T02:57:46.529Z,65.10
2023-02-08T03:00:22.948Z,65.10
2023-02-08T03:02:53.154Z,65.10
2023-02-08T03:05:21.211Z,65.30
2023-02-08T03:08:14.865Z,65.30
2023-02-08T03:10:54.580Z,65.50
2023-02-08T03:13:33.665Z,65.50
2023-02-08T03:16:12.848Z,65.50
2023-02-08T03:18:56.332Z,65.40
2023-02-08T03:21:34.864Z,65.40
2023-02-08T03:24:09.133Z,65.40
2023-02-08T03:26:43.343Z,65.40
2023-02-08T03:29:22.804Z,65.40
2023-02-08T03:31:58.042Z,65.50
2023-02-08T03:34:36.352Z,64.60
2023-02-08T03:37:09.105Z,65.50
2023-02-08T03:39:39.279Z,65.50
2023-02-08T03:42:13.943Z,65.40
2023-02-08T03:44:47.856Z,65.50
2023-02-08T03:47:21.286Z,65.50
2023-02-08T03:49:53.843Z,65.50
2023-02-08T03:52:24.842Z,65.50
2023-02-08T03:54:57.114Z,65.50
2023-02-08T03:57:28.233Z,65.50
2023-02-08T03:59:58.791Z,65.50
2023-02-08T04:02:31.498Z,65.50
2023-02-08T04:05:03.052Z,65.50
2023-02-08T04:07:31.612Z,65.60
2023-02-08T04:10:00.215Z,65.30
2023-02-08T04:12:28.436Z,65.50
2023-02-08T04:14:56.966Z,65.50
2023-02-08T04:17:25.070Z,65.50
2023-02-08T04:19:53.133Z,65.60
2023-02-08T04:22:23.136Z,65.50
2023-02-08T04:24:51.226Z,65.30
2023-02-08T04:27:19.894Z,65.60
2023-02-08T04:29:48.632Z,65.70
2023-02-08T04:32:16.765Z,65.60
2023-02-08T04:34:44.973Z,65.50
2023-02-08T04:37:13.137Z,65.50
2023-02-08T04:39:42.663Z,65.70
2023-02-08T04:42:10.956Z,65.70
2023-02-08T04:44:39.470Z,65.70
2023-02-08T04:47:07.532Z,65.70
2023-02-08T04:49:36.344Z,65.90
2023-02-08T04:52:05.584Z,66.10
2023-02-08T04:54:34.693Z,66.30
2023-02-08T04:57:04.684Z,66.30
2023-02-08T04:59:32.797Z,66.10
2023-02-08T05:02:01.411Z,66.10
2023-02-08T05:04:30.023Z,66.10
2023-02-08T05:06:58.153Z,66.20
2023-02-08T05:09:26.741Z,66.20
2023-02-08T05:11:55.338Z,66.40
2023-02-08T05:14:24.760Z,66.40
2023-02-08T05:16:53.309Z,66.40
2023-02-08T05:19:21.809Z,66.50
2023-02-08T05:21:50.416Z,66.60
2023-02-08T05:24:19.186Z,66.50
2023-02-08T05:26:47.303Z,66.40
2023-02-08T05:29:15.917Z,66.40
2023-02-08T05:31:46.075Z,66.60
2023-02-08T05:34:14.824Z,66.60
2023-02-08T05:36:43.037Z,66.70
2023-02-08T05:39:11.380Z,66.50
2023-02-08T05:41:39.481Z,66.40
2023-02-08T05:44:08.050Z,66.50
2023-02-08T05:46:38.143Z,66.40
2023-02-08T05:49:08.704Z,66.40
2023-02-08T05:51:37.182Z,66.40
2023-02-08T05:54:05.888Z,66.40
2023-02-08T05:56:34.007Z,66.40
2023-02-08T05:59:02.504Z,66.50
2023-02-08T06:01:31.780Z,66.60
2023-02-08T06:04:00.794Z,66.60
2023-02-08T06:06:30.523Z,66.80
2023-02-08T06:08:59.173Z,66.60
2023-02-08T06:11:28.567Z,66.70
2023-02-08T06:13:57.177Z,66.70
2023-02-08T06:16:25.763Z,66.90
2023-02-08T06:18:53.941Z,66.90
2023-02-08T06:21:24.478Z,66.80
2023-02-08T06:23:54.084Z,66.80
2023-02-08T06:26:22.702Z,66.80
2023-02-08T06:28:50.805Z,66.90
2023-02-08T06:31:19.424Z,67.00
2023-02-08T06:33:47.575Z,67.00
2023-02-08T06:36:16.134Z,67.10
2023-02-08T06:38:44.769Z,67.30
2023-02-08T06:41:14.249Z,67.20
2023-02-08T06:43:42.880Z,67.50
2023-02-08T06:46:11.054Z,67.20
2023-02-08T06:48:39.857Z,67.50
2023-02-08T06:51:08.645Z,67.50
2023-02-08T06:53:36.777Z,67.30
2023-02-08T06:56:05.060Z,67.50
2023-02-08T06:58:35.032Z,67.60
2023-02-08T07:01:03.706Z,67.50
2023-02-08T07:03:31.871Z,67.40
2023-02-08T07:06:05.224Z,67.40
2023-02-08T07:08:34.244Z,67.50
2023-02-08T07:11:07.393Z,68.60
2023-02-08T07:13:37.158Z,67.80
2023-02-08T07:16:05.926Z,67.50
2023-02-08T07:18:35.024Z,67.70
2023-02-08T07:21:03.977Z,67.90
2023-02-08T07:23:32.961Z,68.00
2023-02-08T07:26:01.744Z,68.00
2023-02-08T07:28:30.580Z,68.10
2023-02-08T07:31:00.189Z,68.10
2023-02-08T07:33:28.902Z,67.90
2023-02-08T07:35:57.089Z,68.00
2023-02-08T07:38:25.601Z,68.10
2023-02-08T07:40:54.205Z,68.10
2023-02-08T07:43:22.748Z,68.00
2023-02-08T07:45:51.362Z,68.10
2023-02-08T07:48:21.336Z,68.10
2023-02-08T07:50:49.426Z,68.10
2023-02-08T07:53:17.909Z,68.20
2023-02-08T07:55:47.894Z,68.30
2023-02-08T07:58:16.497Z,68.50
2023-02-08T08:00:45.242Z,68.20
2023-02-08T08:03:13.348Z,68.30
2023-02-08T08:05:43.876Z,68.50
2023-02-08T08:08:13.913Z,68.70
2023-02-08T08:10:42.688Z,68.80
2023-02-08T08:13:11.426Z,68.80
2023-02-08T08:15:40.832Z,68.60
2023-02-08T08:18:09.423Z,68.90
2023-02-08T08:20:38.159Z,68.90
2023-02-08T08:23:07.675Z,68.90
2023-02-08T08:25:36.759Z,69.00
2023-02-08T08:28:05.119Z,69.10
2023-02-08T08:30:33.311Z,69.10
2023-02-08T08:33:01.961Z,69.00
2023-02-08T08:35:30.042Z,69.10
2023-02-08T08:37:58.645Z,69.20
2023-02-08T08:40:28.112Z,69.20
2023-02-08T08:42:57.027Z,69.30
2023-02-08T08:45:25.723Z,69.40
2023-02-08T08:47:54.343Z,69.40
2023-02-08T08:50:23.033Z,69.50
2023-02-08T08:52:51.224Z,69.40
2023-02-08T08:55:19.912Z,69.60
2023-02-08T08:57:49.774Z,69.60
2023-02-08T09:00:19.844Z,69.60
2023-02-08T09:02:47.911Z,69.80
2023-02-08T09:05:16.687Z,69.80
2023-02-08T09:07:44.740Z,69.80
2023-02-08T09:10:13.335Z,70.00
2023-02-08T09:12:41.510Z,70.10
2023-02-08T09:15:12.292Z,70.30
2023-02-08T09:17:40.382Z,70.30
2023-02-08T09:20:09.514Z,70.30
2023-02-08T09:22:37.575Z,70.50
2023-02-08T09:25:08.003Z,70.10
2023-02-08T09:27:36.956Z,70.50
2023-02-08T09:30:05.421Z,70.30
2023-02-08T09:32:35.510Z,70.20
2023-02-08T09:35:04.319Z,69.80
2023-02-08T09:37:32.921Z,70.00
2023-02-08T09:40:02.295Z,69.40
2023-02-08T09:42:43.344Z,69.40
2023-02-08T09:45:27.770Z,69.40
2023-02-08T09:48:05.453Z,69.30
2023-02-08T09:50:36.988Z,69.00
2023-02-08T09:53:13.110Z,68.90
2023-02-08T09:55:44.718Z,68.90
2023-02-08T09:58:23.493Z,68.80
2023-02-08T10:00:54.085Z,68.80
2023-02-08T10:03:36.578Z,68.60
2023-02-08T10:06:06.591Z,68.40
2023-02-08T10:08:36.617Z,68.30
2023-02-08T10:11:16.024Z,68.20
2023-02-08T10:14:04.424Z,67.90
2023-02-08T10:16:44.346Z,67.70
2023-02-08T10:19:27.784Z,67.70
2023-02-08T10:22:10.645Z,67.50
2023-02-08T10:25:15.846Z,67.60
2023-02-08T10:27:53.977Z,67.40
2023-02-08T10:30:33.404Z,67.30
2023-02-08T10:33:03.817Z,67.00
2023-02-08T10:35:37.817Z,67.00
2023-02-08T10:38:29.700Z,66.90
2023-02-08T10:41:04.615Z,66.90
2023-02-08T10:43:41.012Z,66.90
2023-02-08T10:46:16.523Z,66.60
2023-02-08T10:48:53.917Z,66.40
2023-02-08T10:51:23.550Z,66.50
2023-02-08T10:53:51.853Z,66.40
2023-02-08T10:56:44.789Z,66.40
2023-02-08T10:59:21.647Z,66.20
2023-02-08T11:01:50.913Z,66.20
2023-02-08T11:04:20.259Z,66.10
2023-02-08T11:06:52.249Z,66.00
2023-02-08T11:09:29.871Z,66.10
2023-02-08T11:11:59.742Z,65.90
2023-02-08T11:14:45.588Z,66.10
2023-02-08T11:17:27.416Z,66.10
2023-02-08T11:19:56.600Z,66.00
2023-02-08T11:22:31.059Z,66.10
2023-02-08T11:25:01.454Z,65.90
2023-02-08T11:27:34.964Z,65.70
2023-02-08T11:30:23.764Z,65.70
2023-02-08T11:33:20.017Z,65.10
2023-02-08T11:35:56.301Z,65.10
2023-02-08T11:38:28.932Z,65.30
2023-02-08T11:40:59.440Z,65.20
2023-02-08T11:43:30.977Z,65.20
2023-02-08T11:46:00.663Z,65.10
2023-02-08T11:48:39.898Z,65.10
2023-02-08T11:51:08.578Z,64.80
2023-02-08T11:53:41.825Z,64.80
2023-02-08T11:56:18.960Z,64.50
2023-02-08T11:59:18.113Z,63.80
2023-02-08T12:01:46.563Z,63.60
2023-02-08T12:04:17.433Z,64.30
2023-02-08T12:07:20.082Z,64.10
2023-02-08T12:10:24.350Z,63.60
2023-02-08T12:13:07.976Z,63.40
2023-02-08T12:15:57.769Z,63.50
2023-02-08T12:18:56.373Z,63.30
2023-02-08T12:21:29.976Z,62.50
2023-02-08T12:24:00.670Z,62.60
2023-02-08T12:26:48.039Z,62.10
2023-02-08T12:29:47.383Z,61.10
2023-02-08T12:32:33.172Z,61.10
2023-02-08T12:35:33.250Z,60.70
2023-02-08T12:38:29.677Z,60.50
2023-02-08T12:41:05.980Z,60.70
2023-02-08T12:43:47.094Z,60.20
2023-02-08T12:46:31.745Z,59.60
2023-02-08T12:49:18.261Z,59.20
2023-02-08T12:51:56.374Z,59.00
2023-02-08T12:54:31.578Z,59.00
2023-02-08T12:57:02.998Z,58.90
2023-02-08T12:59:37.556Z,59.40
2023-02-08T13:02:15.184Z,58.50
2023-02-08T13:04:47.238Z,58.40
2023-02-08T13:07:21.782Z,58.30
2023-02-08T13:09:57.938Z,58.10
2023-02-08T13:12:30.982Z,58.00
2023-02-08T13:15:09.215Z,58.00
2023-02-08T13:17:46.493Z,57.60
2023-02-08T13:20:31.109Z,57.00
2023-02-08T13:23:04.294Z,56.50
2023-02-08T13:25:36.400Z,56.60
2023-02-08T13:28:06.712Z,56.50
2023-02-08T13:30:40.186Z,56.40
2023-02-08T13:33:18.553Z,56.10
2023-02-08T13:35:51.517Z,55.60
2023-02-08T13:38:29.936Z,55.20
2023-02-08T13:41:16.039Z,55.00
2023-02-08T13:43:47.741Z,54.80
2023-02-08T13:46:19.023Z,55.30
2023-02-08T13:48:50.212Z,54.90
2023-02-08T13:51:58.691Z,54.30
2023-02-08T13:54:27.427Z,54.00
2023-02-08T13:56:56.059Z,54.80
2023-02-08T13:59:38.334Z,54.30
2023-02-08T14:02:31.817Z,53.50
2023-02-08T14:05:44.164Z,53.00
2023-02-08T14:08:22.616Z,52.90
2023-02-08T14:11:02.168Z,53.10
2023-02-08T14:13:33.968Z,52.40
2023-02-08T14:16:31.400Z,52.90
2023-02-08T14:19:03.429Z,52.20
2023-02-08T14:21:37.322Z,53.00
2023-02-08T14:24:08.613Z,52.50
2023-02-08T14:26:38.483Z,52.60
2023-02-08T14:29:08.717Z,52.40
2023-02-08T14:31:40.548Z,51.90
2023-02-08T14:34:28.404Z,50.90
2023-02-08T14:37:01.848Z,49.80
2023-02-08T14:39:33.950Z,50.70
2023-02-08T14:42:05.963Z,51.30
2023-02-08T14:45:05.618Z,51.40
2023-02-08T14:47:57.991Z,49.90
2023-02-08T14:50:32.991Z,50.00
2023-02-08T14:53:19.860Z,50.80
2023-02-08T14:55:51.921Z,49.80
2023-02-08T14:58:28.595Z,50.40
2023-02-08T15:01:01.328Z,50.00
2023-02-08T15:03:33.668Z,50.10
2023-02-08T15:06:37.023Z,49.70
2023-02-08T15:09:06.701Z,48.70
2023-02-08T15:11:37.422Z,49.10
2023-02-08T15:14:07.560Z,49.00
2023-02-08T15:16:41.616Z,48.70
2023-02-08T15:19:16.526Z,48.80
2023-02-08T15:21:46.472Z,48.70
2023-02-08T15:24:17.305Z,49.10
2023-02-08T15:26:47.020Z,49.30
2023-02-08T15:29:20.999Z,49.40
2023-02-08T15:31:50.354Z,49.50
2023-02-08T15:34:20.601Z,49.90
2023-02-08T15:36:54.505Z,49.90
2023-02-08T15:39:34.353Z,50.00
2023-02-08T15:42:03.049Z,50.20
2023-02-08T15:44:33.348Z,50.50
2023-02-08T15:47:03.540Z,50.60
2023-02-08T15:49:34.395Z,50.60
2023-02-08T15:52:04.377Z,50.80
2023-02-08T15:54:33.551Z,50.80
2023-02-08T15:57:07.181Z,51.00
2023-02-08T15:59:38.821Z,51.10
2023-02-08T16:02:19.690Z,51.50
2023-02-08T16:04:48.131Z,51.30
2023-02-08T16:07:25.919Z,51.50
2023-02-08T16:09:54.373Z,51.60
2023-02-08T16:12:25.391Z,51.90
2023-02-08T16:14:56.427Z,51.90
2023-02-08T16:17:37.751Z,51.90
2023-02-08T16:20:25.552Z,51.90
2023-02-08T16:23:01.616Z,52.10
2023-02-08T16:25:43.102Z,52.30
2023-02-08T16:28:28.608Z,52.50
2023-02-08T16:30:59.201Z,52.80
2023-02-08T16:33:28.463Z,52.80
2023-02-08T16:36:01.838Z,52.90
2023-02-08T16:38:34.335Z,52.90
2023-02-08T16:41:13.038Z,52.70
2023-02-08T16:43:44.373Z,53.20
2023-02-08T16:46:25.679Z,53.30
2023-02-08T16:48:55.877Z,53.20
2023-02-08T16:51:27.563Z,53.30
2023-02-08T16:54:02.489Z,53.50
2023-02-08T16:56:31.583Z,53.60
2023-02-08T16:59:00.101Z,53.60
2023-02-08T17:01:29.493Z,53.70
2023-02-08T17:03:58.171Z,54.00
2023-02-08T17:06:31.048Z,54.10
2023-02-08T17:09:02.230Z,54.30
2023-02-08T17:11:31.225Z,54.40
2023-02-08T17:13:59.885Z,54.40
2023-02-08T17:16:30.064Z,54.50
2023-02-08T17:18:59.590Z,54.50
2023-02-08T17:21:29.731Z,54.60
2023-02-08T17:23:58.077Z,54.70
2023-02-08T17:26:30.141Z,54.70
2023-02-08T17:28:59.949Z,54.90
2023-02-08T17:31:30.974Z,54.90
2023-02-08T17:34:04.386Z,55.00
2023-02-08T17:36:35.584Z,55.60
2023-02-08T17:39:05.202Z,55.10
2023-02-08T17:41:35.966Z,55.10
2023-02-08T17:44:04.666Z,55.20
2023-02-08T17:46:32.790Z,55.30
2023-02-08T17:49:01.755Z,55.40
2023-02-08T17:51:30.643Z,55.40
2023-02-08T17:53:58.718Z,55.50
2023-02-08T17:56:28.553Z,55.70
2023-02-08T17:59:01.374Z,55.90
2023-02-08T18:01:29.518Z,55.90
2023-02-08T18:03:57.864Z,55.90
2023-02-08T18:06:26.618Z,56.10
2023-02-08T18:08:56.174Z,56.20
2023-02-08T18:11:25.026Z,56.30
2023-02-08T18:13:55.425Z,56.30
2023-02-08T18:16:26.479Z,56.40
2023-02-08T18:18:57.480Z,56.50
2023-02-08T18:21:26.645Z,56.60
2023-02-08T18:23:55.830Z,56.60
2023-02-08T18:26:26.520Z,56.70
2023-02-08T18:28:55.056Z,56.70
2023-02-08T18:31:25.464Z,56.80
2023-02-08T18:33:54.184Z,56.80
2023-02-08T18:36:23.224Z,56.90
2023-02-08T18:38:53.366Z,57.00
2023-02-08T18:41:25.253Z,57.10
2023-02-08T18:43:55.387Z,57.10
2023-02-08T18:46:26.552Z,57.10
2023-02-08T18:48:55.647Z,57.20
2023-02-08T18:51:25.031Z,57.10
2023-02-08T18:53:55.691Z,57.20
2023-02-08T18:56:26.161Z,57.40
2023-02-08T18:58:55.243Z,57.40
2023-02-08T19:01:25.685Z,57.50
2023-02-08T19:03:55.997Z,57.50
2023-02-08T19:06:25.750Z,58.20
2023-02-08T19:08:55.580Z,57.60
2023-02-08T19:11:25.536Z,57.60
2023-02-08T19:13:56.434Z,57.70
2023-02-08T19:16:27.704Z,57.70
2023-02-08T19:18:56.934Z,57.80
2023-02-08T19:21:25.309Z,57.80
2023-02-08T19:23:54.828Z,57.90
2023-02-08T19:26:25.500Z,57.90
2023-02-08T19:28:57.605Z,57.90
2023-02-08T19:31:29.599Z,57.90
2023-02-08T19:34:00.390Z,58.00
2023-02-08T19:36:31.033Z,58.00
2023-02-08T19:39:00.612Z,58.10
2023-02-08T19:41:31.019Z,58.20
2023-02-08T19:43:59.970Z,58.20
2023-02-08T19:46:29.464Z,58.20
2023-02-08T19:49:00.686Z,58.40
2023-02-08T19:51:29.701Z,58.50
2023-02-08T19:53:58.817Z,58.40
2023-02-08T19:56:27.423Z,58.50
2023-02-08T19:58:55.445Z,58.50
2023-02-08T20:01:24.425Z,58.60
2023-02-08T20:03:55.082Z,59.30
2023-02-08T20:06:26.016Z,58.70
2023-02-08T20:08:55.177Z,58.80
2023-02-08T20:11:26.663Z,58.80
2023-02-08T20:13:56.827Z,59.00
2023-02-08T20:16:26.210Z,58.90
2023-02-08T20:18:56.449Z,59.00
2023-02-08T20:21:25.246Z,59.00
2023-02-08T20:23:53.802Z,59.00
2023-02-08T20:26:24.131Z,59.00
2023-02-08T20:28:54.747Z,59.20
2023-02-08T20:31:25.749Z,59.30
2023-02-08T20:33:58.504Z,59.30
2023-02-08T20:36:28.685Z,59.40
2023-02-08T20:38:58.644Z,59.50
2023-02-08T20:41:29.192Z,59.50
2023-02-08T20:43:57.599Z,59.60
2023-02-08T20:46:27.785Z,59.60
2023-02-08T20:49:00.498Z,59.70
2023-02-08T20:51:29.696Z,59.90
2023-02-08T20:54:00.446Z,59.90
2023-02-08T20:56:30.973Z,60.00
2023-02-08T20:59:02.288Z,60.00
2023-02-08T21:01:31.652Z,60.00
2023-02-08T21:04:01.643Z,60.00
2023-02-08T21:06:32.429Z,60.00
2023-02-08T21:09:02.970Z,60.00
2023-02-08T21:11:32.878Z,60.10
2023-02-08T21:14:02.196Z,60.20
2023-02-08T21:16:30.925Z,60.20
2023-02-08T21:19:01.110Z,60.30
2023-02-08T21:21:29.492Z,60.30
2023-02-08T21:23:57.979Z,60.20
2023-02-08T21:26:26.846Z,60.20
2023-02-08T21:28:55.953Z,60.30
2023-02-08T21:31:25.419Z,60.40
2023-02-08T21:33:54.879Z,60.50
2023-02-08T21:36:26.248Z,60.40
2023-02-08T21:38:54.347Z,60.60
2023-02-08T21:41:24.998Z,60.50
2023-02-08T21:43:56.179Z,60.70
2023-02-08T21:46:25.687Z,60.80
2023-02-08T21:49:11.145Z,60.90
2023-02-08T21:51:58.915Z,61.00
2023-02-08T21:54:44.463Z,61.00
2023-02-08T21:57:16.444Z,61.20
2023-02-08T21:59:44.804Z,61.30
2023-02-08T22:02:15.786Z,61.40
2023-02-08T22:04:47.058Z,61.50
2023-02-08T22:07:17.036Z,62.40
2023-02-08T22:09:45.089Z,61.50
2023-02-08T22:12:16.296Z,61.40
2023-02-08T22:14:44.704Z,61.70
2023-02-08T22:17:13.321Z,61.50
2023-02-08T22:19:42.448Z,61.60
2023-02-08T22:22:12.040Z,61.70
2023-02-08T22:24:41.653Z,61.80
2023-02-08T22:27:10.090Z,61.80
2023-02-08T22:29:38.339Z,61.90
2023-02-08T22:32:07.528Z,62.00
2023-02-08T22:34:35.586Z,62.10
2023-02-08T22:37:04.427Z,62.10
2023-02-08T22:39:34.706Z,62.30
2023-02-08T22:42:08.117Z,62.50
2023-02-08T22:44:37.330Z,62.50
2023-02-08T22:47:06.969Z,62.60
2023-02-08T22:49:36.366Z,62.60
2023-02-08T22:52:05.625Z,62.60
2023-02-08T22:54:34.595Z,62.70
2023-02-08T22:57:05.990Z,62.60
2023-02-08T22:59:34.936Z,62.70
2023-02-08T23:02:03.096Z,62.60
2023-02-08T23:04:31.753Z,62.60
2023-02-08T23:07:01.278Z,62.70
2023-02-08T23:09:29.429Z,62.80
2023-02-08T23:11:57.580Z,62.80
2023-02-08T23:14:27.626Z,62.90
2023-02-08T23:16:55.832Z,62.80
2023-02-08T23:19:24.370Z,62.90
2023-02-08T23:21:59.859Z,62.70
2023-02-08T23:24:28.080Z,62.80
2023-02-08T23:26:56.335Z,62.70
2023-02-08T23:29:24.512Z,62.90
2023-02-08T23:31:54.183Z,62.80
2023-02-08T23:34:22.332Z,63.00
2023-02-08T23:36:50.884Z,63.00
2023-02-08T23:39:19.005Z,63.00
2023-02-08T23:41:47.128Z,62.80
2023-02-08T23:44:15.173Z,63.00
2023-02-08T23:46:43.753Z,63.50
2023-02-08T23:49:13.206Z,62.80
2023-02-08T23:51:41.783Z,63.00
2023-02-08T23:54:10.328Z,62.90
2023-02-08T23:56:38.949Z,63.00
2023-02-08T23:59:08.682Z,63.00
